Time;durP1;ratioP1;P1;durP2;ratioP2;P2;SDS_P1;SDS_P2;PMS_P1;PMS_P2;Temp;Humidity;BMP_temperature;BMP_pressure;BME280_temperature;BME280_humidity;BME280_pressure;Samples;Min_cycle;Max_cycle;Signal;HPM_P1;HPM_P2
2022/03/06 00:00:46;;;;;;;3.92;3.22;;;0.00;99.90;;;;;;4946417;28;20055;-74
2022/03/06 00:03:15;;;;;;;3.80;3.13;;;0.10;99.90;;;;;;4902868;28;20138;-74
2022/03/06 00:05:41;;;;;;;3.00;2.75;;;0.20;99.90;;;;;;4915789;28;20303;-74
2022/03/06 00:08:09;;;;;;;1.73;1.63;;;0.30;99.90;;;;;;4931729;28;20046;-75
2022/03/06 00:10:35;;;;;;;0.45;0.45;;;0.40;99.90;;;;;;4935599;28;20527;-74
2022/03/06 00:13:01;;;;;;;1.15;1.15;;;0.40;99.90;;;;;;4934805;28;20401;-76
2022/03/06 00:15:26;;;;;;;1.02;0.93;;;0.40;99.90;;;;;;4902667;28;20071;-76
2022/03/06 00:18:19;;;;;;;0.40;0.40;;;0.50;99.90;;;;;;4927501;28;20689;-76
2022/03/06 00:20:45;;;;;;;0.70;0.70;;;0.60;99.90;;;;;;4909557;29;20308;-74
2022/03/06 00:23:14;;;;;;;7.38;4.70;;;0.60;99.90;;;;;;4911407;28;20054;-74
2022/03/06 00:25:53;;;;;;;3.57;2.97;;;0.70;99.90;;;;;;4930893;28;20435;-74
2022/03/06 00:28:18;;;;;;;3.65;3.35;;;0.80;99.90;;;;;;4916763;28;20043;-74
2022/03/06 00:30:46;;;;;;;2.92;2.05;;;1.00;99.90;;;;;;4932002;28;20043;-74
2022/03/06 00:33:11;;;;;;;2.40;2.20;;;1.00;99.90;;;;;;4940810;28;20047;-75
2022/03/06 00:35:37;;;;;;;0.40;0.40;;;1.10;99.90;;;;;;4944498;28;20640;-74
2022/03/06 00:38:03;;;;;;;2.55;2.35;;;1.20;99.90;;;;;;4893740;28;20051;-75
2022/03/06 00:40:29;;;;;;;1.85;1.75;;;1.20;99.90;;;;;;4918682;28;20315;-75
2022/03/06 00:42:55;;;;;;;6.97;4.25;;;1.20;99.90;;;;;;4926849;28;20232;-75
2022/03/06 00:45:20;;;;;;;2.40;2.20;;;1.30;99.90;;;;;;4895788;28;22482;-75
2022/03/06 00:47:46;;;;;;;4.53;3.13;;;1.30;99.90;;;;;;4907920;28;20034;-75
2022/03/06 00:50:15;;;;;;;5.63;4.70;;;1.40;99.90;;;;;;4925310;28;20042;-75
2022/03/06 00:52:41;;;;;;;3.45;2.95;;;1.40;99.90;;;;;;4947471;28;20594;-75
2022/03/06 00:55:09;;;;;;;3.83;2.67;;;1.50;99.90;;;;;;4923729;28;20046;-75
2022/03/06 00:57:35;;;;;;;9.13;5.32;;;1.50;99.90;;;;;;4984374;28;20049;-75
2022/03/06 01:00:00;;;;;;;5.78;4.07;;;1.60;99.90;;;;;;4994514;28;20052;-74
2022/03/06 01:02:40;;;;;;;10.73;4.75;;;1.60;99.90;;;;;;5023815;28;20242;-76
2022/03/06 01:05:06;;;;;;;4.20;3.17;;;1.60;99.90;;;;;;5007495;28;20103;-76
2022/03/06 01:07:32;;;;;;;6.82;4.28;;;1.70;99.90;;;;;;4998308;28;20045;-76
2022/03/06 01:09:57;;;;;;;5.65;4.13;;;1.70;99.90;;;;;;5006377;28;20045;-76
2022/03/06 01:12:23;;;;;;;1.23;1.17;;;1.70;99.90;;;;;;5010805;28;20043;-76
2022/03/06 01:14:49;;;;;;;0.60;0.60;;;1.80;99.90;;;;;;5017801;28;20127;-76
2022/03/06 01:17:17;;;;;;;6.47;2.45;;;1.70;99.90;;;;;;4995433;28;20044;-76
2022/03/06 01:19:42;;;;;;;1.98;1.88;;;1.70;99.90;;;;;;4994647;28;20049;-76
2022/03/06 01:22:20;;;;;;;2.25;2.13;;;1.70;99.90;;;;;;4995282;28;20246;-76
2022/03/06 01:24:45;;;;;;;4.45;2.25;;;1.70;99.90;;;;;;5019891;28;20537;-74
2022/03/06 01:27:11;;;;;;;0.70;0.70;;;1.70;99.90;;;;;;4988744;28;20045;-74
2022/03/06 01:29:37;;;;;;;0.60;0.60;;;1.70;99.90;;;;;;4993593;28;20819;-76
2022/03/06 01:32:06;;;;;;;0.82;0.82;;;1.70;99.90;;;;;;4986139;28;20041;-76
2022/03/06 01:34:35;;;;;;;0.75;0.75;;;1.60;99.90;;;;;;5002847;28;20393;-76
2022/03/06 01:37:00;;;;;;;6.53;2.67;;;1.60;99.90;;;;;;4987566;28;20523;-76
2022/03/06 01:39:26;;;;;;;1.95;1.80;;;1.60;99.90;;;;;;4988322;28;20037;-76
2022/03/06 01:41:52;;;;;;;0.73;0.73;;;1.60;99.90;;;;;;4990507;28;20704;-76
2022/03/06 01:44:17;;;;;;;1.48;1.38;;;1.60;99.90;;;;;;4985907;28;20507;-76
2022/03/06 01:46:52;;;;;;;2.78;2.50;;;1.60;99.90;;;;;;4966524;28;20045;-76
2022/03/06 01:49:17;;;;;;;0.40;0.40;;;1.60;99.90;;;;;;4988141;28;20120;-76
2022/03/06 01:51:43;;;;;;;0.30;0.30;;;1.60;99.90;;;;;;4968718;28;20529;-76
2022/03/06 01:54:09;;;;;;;1.00;1.00;;;1.60;99.90;;;;;;4971925;28;20067;-76
2022/03/06 01:56:41;;;;;;;0.40;0.40;;;1.60;99.90;;;;;;4963414;28;20140;-75
2022/03/06 01:59:35;;;;;;;0.40;0.40;;;1.60;99.90;;;;;;4964696;28;20611;-74
2022/03/06 02:02:04;;;;;;;1.00;1.00;;;1.50;99.90;;;;;;4964569;28;20046;-77
2022/03/06 02:04:30;;;;;;;0.40;0.40;;;1.50;99.90;;;;;;4961660;28;20055;-75
2022/03/06 02:06:59;;;;;;;2.67;1.73;;;1.50;99.90;;;;;;4951019;28;20366;-75
2022/03/06 02:09:25;;;;;;;1.70;1.63;;;1.50;99.90;;;;;;4964319;28;20925;-75
2022/03/06 02:14:38;;;;;;;7.00;5.38;;;1.50;99.90;;;;;;4970731;28;20049;-75
2022/03/06 02:17:03;;;;;;;0.63;0.63;;;1.50;99.90;;;;;;4980957;28;20207;-76
2022/03/06 02:19:29;;;;;;;4.03;3.72;;;1.50;99.90;;;;;;5007434;28;20317;-74
2022/03/06 02:21:55;;;;;;;4.82;2.72;;;1.50;99.90;;;;;;5001390;28;20315;-77
2022/03/06 02:24:20;;;;;;;3.20;1.75;;;1.50;99.90;;;;;;4970702;28;20050;-77
2022/03/06 02:26:46;;;;;;;2.47;2.28;;;1.50;99.90;;;;;;4985139;28;20047;-77
2022/03/06 02:29:15;;;;;;;6.13;2.55;;;1.50;99.90;;;;;;5000860;28;20234;-77
2022/03/06 02:31:40;;;;;;;3.38;2.63;;;1.50;99.90;;;;;;4997777;28;20041;-74
2022/03/06 02:34:06;;;;;;;5.00;3.25;;;1.50;99.90;;;;;;5009752;28;20041;-74
2022/03/06 02:36:32;;;;;;;5.05;3.28;;;1.50;99.90;;;;;;5025811;28;20049;-74
2022/03/06 02:38:58;;;;;;;1.10;0.95;;;1.60;99.90;;;;;;5006460;28;20117;-74
2022/03/06 02:41:23;;;;;;;4.18;3.03;;;1.50;99.90;;;;;;5002783;28;20041;-74
2022/03/06 02:43:49;;;;;;;0.40;0.40;;;1.50;99.90;;;;;;5011635;28;20048;-74
2022/03/06 02:46:14;;;;;;;0.40;0.40;;;1.60;99.90;;;;;;5040562;28;20045;-74
2022/03/06 02:48:40;;;;;;;0.70;0.70;;;1.50;99.90;;;;;;5009436;28;20531;-74
2022/03/06 02:51:06;;;;;;;2.45;1.80;;;1.50;99.90;;;;;;5010627;28;20174;-74
2022/03/06 02:53:31;;;;;;;1.55;1.13;;;1.50;99.90;;;;;;5011006;28;20051;-74
2022/03/06 02:55:58;;;;;;;0.43;0.43;;;1.50;99.90;;;;;;5012120;28;20608;-74
2022/03/06 02:58:24;;;;;;;0.45;0.45;;;1.50;99.90;;;;;;5012941;28;20040;-74
2022/03/06 03:00:50;;;;;;;0.50;0.50;;;1.50;99.90;;;;;;5048256;28;20052;-74
2022/03/06 03:03:16;;;;;;;12.93;3.33;;;1.40;99.90;;;;;;5029397;28;20049;-75
2022/03/06 03:05:42;;;;;;;3.30;2.30;;;1.40;99.90;;;;;;5014508;28;20063;-76
2022/03/06 03:08:07;;;;;;;0.52;0.52;;;1.40;99.90;;;;;;5030693;28;20072;-75
2022/03/06 03:10:33;;;;;;;0.73;0.73;;;1.40;99.90;;;;;;5010381;28;20088;-74
2022/03/06 03:12:58;;;;;;;0.38;0.38;;;1.40;99.90;;;;;;4994923;28;20048;-74
2022/03/06 03:15:24;;;;;;;2.83;1.90;;;1.40;99.90;;;;;;5048061;28;20485;-74
2022/03/06 03:17:50;;;;;;;2.05;1.95;;;1.30;99.90;;;;;;5029843;28;20040;-74
2022/03/06 03:20:16;;;;;;;1.60;1.50;;;1.40;99.90;;;;;;5012813;28;20374;-74
2022/03/06 03:22:43;;;;;;;0.40;0.40;;;1.40;99.90;;;;;;5014664;28;20556;-74
2022/03/06 03:25:09;;;;;;;0.65;0.65;;;1.40;99.90;;;;;;5011305;28;20073;-74
2022/03/06 03:27:35;;;;;;;3.70;1.73;;;1.30;99.90;;;;;;5031050;28;20083;-74
2022/03/06 03:30:03;;;;;;;1.05;1.05;;;1.30;99.90;;;;;;4999925;28;20489;-74
2022/03/06 03:32:28;;;;;;;0.40;0.40;;;1.30;99.90;;;;;;4996974;28;20344;-74
2022/03/06 03:34:54;;;;;;;3.10;1.05;;;1.30;99.90;;;;;;5023721;28;20080;-74
2022/03/06 03:37:20;;;;;;;0.40;0.40;;;1.20;99.90;;;;;;5043791;28;20119;-74
2022/03/06 03:39:45;;;;;;;0.60;0.60;;;1.20;99.90;;;;;;5016311;28;20509;-74
2022/03/06 03:42:11;;;;;;;0.73;0.73;;;1.20;99.90;;;;;;5014728;28;20044;-75
2022/03/06 03:44:36;;;;;;;1.98;1.67;;;1.10;99.90;;;;;;5001867;28;20041;-74
2022/03/06 03:47:02;;;;;;;1.25;1.13;;;1.10;99.90;;;;;;5012076;28;20041;-74
2022/03/06 03:49:28;;;;;;;0.50;0.50;;;1.10;99.90;;;;;;5046198;28;20025;-74
2022/03/06 03:51:53;;;;;;;2.47;2.28;;;1.10;99.90;;;;;;5029878;28;20041;-74
2022/03/06 03:54:19;;;;;;;0.50;0.50;;;1.00;99.90;;;;;;5011808;28;20049;-74
2022/03/06 03:56:44;;;;;;;0.73;0.73;;;0.90;99.90;;;;;;4995082;28;20464;-74
2022/03/06 03:59:11;;;;;;;1.75;1.30;;;0.90;99.90;;;;;;5011056;28;20049;-74
2022/03/06 04:01:36;;;;;;;0.57;0.57;;;0.80;99.90;;;;;;5025631;28;20501;-75
2022/03/06 04:04:04;;;;;;;0.95;0.95;;;0.80;99.90;;;;;;5010448;28;20053;-74
2022/03/06 04:06:29;;;;;;;0.65;0.65;;;0.80;99.90;;;;;;5021010;28;20484;-74
2022/03/06 04:08:55;;;;;;;1.52;1.42;;;0.80;99.90;;;;;;5012229;28;20072;-74
2022/03/06 04:11:20;;;;;;;0.77;0.77;;;0.80;99.90;;;;;;5000871;28;20490;-75
2022/03/06 04:13:46;;;;;;;2.08;1.65;;;0.80;99.90;;;;;;5010619;28;20037;-74
2022/03/06 04:16:11;;;;;;;7.93;3.60;;;0.80;99.90;;;;;;5045077;28;20045;-74
2022/03/06 04:18:37;;;;;;;4.10;2.25;;;0.80;99.90;;;;;;5043683;28;20041;-74
2022/03/06 04:21:03;;;;;;;1.30;1.20;;;1.00;99.90;;;;;;5043755;28;20406;-74
2022/03/06 04:23:28;;;;;;;1.27;1.23;;;1.00;99.90;;;;;;5012777;28;20160;-74
2022/03/06 04:25:54;;;;;;;0.40;0.40;;;1.00;99.90;;;;;;5030132;28;20124;-74
2022/03/06 04:28:19;;;;;;;5.03;2.97;;;1.00;99.90;;;;;;5007581;28;20041;-74
2022/03/06 04:30:45;;;;;;;8.15;4.85;;;1.00;99.90;;;;;;5029626;28;20036;-74
2022/03/06 04:33:11;;;;;;;1.33;1.23;;;1.10;99.90;;;;;;5015041;28;20038;-74
2022/03/06 04:35:36;;;;;;;7.47;3.45;;;1.10;99.90;;;;;;5001386;28;20497;-74
2022/03/06 04:38:02;;;;;;;8.07;3.00;;;1.10;99.90;;;;;;5013112;28;20135;-74
2022/03/06 04:40:28;;;;;;;4.15;2.90;;;1.10;99.90;;;;;;5027014;28;20048;-74
2022/03/06 04:42:53;;;;;;;1.42;1.33;;;1.10;99.90;;;;;;5018236;28;20556;-74
2022/03/06 04:45:19;;;;;;;0.63;0.63;;;1.10;99.90;;;;;;5029824;28;20041;-74
2022/03/06 04:47:45;;;;;;;2.15;2.03;;;1.00;99.90;;;;;;5012118;28;20033;-74
2022/03/06 04:50:10;;;;;;;3.92;2.50;;;1.00;99.90;;;;;;5028602;28;20261;-74
2022/03/06 04:52:36;;;;;;;1.88;1.73;;;1.00;99.90;;;;;;5026254;28;20617;-74
2022/03/06 04:55:01;;;;;;;3.53;2.70;;;0.90;99.90;;;;;;5006895;28;20166;-74
2022/03/06 04:57:27;;;;;;;3.45;2.22;;;0.80;99.90;;;;;;5008554;28;20042;-74
2022/03/06 04:59:53;;;;;;;6.22;3.65;;;0.80;99.90;;;;;;5019196;28;20045;-74
2022/03/06 05:02:18;;;;;;;0.93;0.93;;;0.80;99.90;;;;;;5027788;28;20479;-74
2022/03/06 05:04:44;;;;;;;3.78;3.13;;;0.70;99.90;;;;;;5027000;28;20048;-74
2022/03/06 05:07:09;;;;;;;0.82;0.77;;;0.70;99.90;;;;;;5029505;28;20507;-75
2022/03/06 05:09:35;;;;;;;2.15;2.00;;;0.60;99.90;;;;;;5027638;28;20314;-74
2022/03/06 05:12:01;;;;;;;3.85;2.50;;;0.60;99.90;;;;;;5037804;28;20060;-75
2022/03/06 05:14:26;;;;;;;4.85;3.25;;;0.60;99.90;;;;;;5016864;28;20045;-74
2022/03/06 05:16:52;;;;;;;5.60;2.90;;;0.60;99.90;;;;;;5044110;28;20079;-74
2022/03/06 05:19:18;;;;;;;1.95;1.73;;;0.60;99.90;;;;;;5026994;28;20037;-75
2022/03/06 05:21:44;;;;;;;1.35;1.23;;;0.50;99.90;;;;;;5009257;28;20045;-74
2022/03/06 05:24:10;;;;;;;0.80;0.80;;;0.50;99.90;;;;;;5008175;28;20056;-74
2022/03/06 05:26:35;;;;;;;0.75;0.75;;;0.40;99.90;;;;;;5019960;28;20041;-74
2022/03/06 05:29:01;;;;;;;0.82;0.82;;;0.40;99.90;;;;;;4993141;28;20043;-74
2022/03/06 05:31:26;;;;;;;0.63;0.63;;;0.30;99.90;;;;;;5043238;28;20136;-74
2022/03/06 05:33:52;;;;;;;0.70;0.70;;;0.20;99.90;;;;;;5010821;28;20118;-75
2022/03/06 05:36:18;;;;;;;1.83;1.73;;;0.10;99.90;;;;;;5028370;28;20544;-74
2022/03/06 05:38:43;;;;;;;0.85;0.85;;;0.10;99.90;;;;;;5025928;28;20103;-74
2022/03/06 05:41:09;;;;;;;1.73;1.38;;;0.00;99.90;;;;;;5007826;28;20251;-74
2022/03/06 05:43:35;;;;;;;0.40;0.40;;;-0.10;99.90;;;;;;5025332;28;20091;-74
2022/03/06 05:46:02;;;;;;;1.30;1.30;;;-0.10;99.90;;;;;;5024865;28;20087;-74
2022/03/06 05:48:27;;;;;;;1.95;1.70;;;-0.20;99.90;;;;;;5026413;28;20079;-74
2022/03/06 05:50:53;;;;;;;0.43;0.43;;;-0.30;99.90;;;;;;5028284;28;20072;-74
2022/03/06 05:53:20;;;;;;;1.63;1.52;;;-0.30;99.90;;;;;;5026147;28;20177;-74
2022/03/06 05:55:46;;;;;;;0.70;0.70;;;-0.40;99.90;;;;;;5010487;28;20041;-75
2022/03/06 05:58:12;;;;;;;0.65;0.65;;;-0.40;99.90;;;;;;5027740;28;20051;-74
2022/03/06 06:00:37;;;;;;;2.40;2.30;;;-0.40;99.90;;;;;;4998720;28;20045;-75
2022/03/06 06:03:03;;;;;;;0.70;0.70;;;-0.40;99.90;;;;;;5027046;28;20513;-74
2022/03/06 06:05:28;;;;;;;3.25;2.45;;;-0.50;99.90;;;;;;5045071;28;20049;-74
2022/03/06 06:07:54;;;;;;;1.80;1.30;;;-0.50;99.90;;;;;;5040175;28;20489;-74
2022/03/06 06:10:20;;;;;;;0.40;0.40;;;-0.50;99.90;;;;;;5013667;28;20146;-74
2022/03/06 06:12:45;;;;;;;0.45;0.45;;;-0.60;99.90;;;;;;5012215;28;20041;-75
2022/03/06 06:15:11;;;;;;;0.40;0.40;;;-0.60;99.90;;;;;;5043103;28;20513;-74
2022/03/06 06:17:38;;;;;;;2.25;2.05;;;-0.70;99.90;;;;;;5041742;28;20037;-74
2022/03/06 06:20:05;;;;;;;0.43;0.43;;;-0.80;99.90;;;;;;5028458;28;20052;-75
2022/03/06 06:22:31;;;;;;;0.43;0.43;;;-0.90;99.90;;;;;;4995779;28;20204;-74
2022/03/06 06:25:02;;;;;;;0.70;0.70;;;-0.90;99.90;;;;;;4998027;28;20182;-74
2022/03/06 06:27:28;;;;;;;0.47;0.47;;;-0.90;99.90;;;;;;5027574;28;20045;-74
2022/03/06 06:29:55;;;;;;;0.50;0.50;;;-1.00;99.90;;;;;;5024881;28;20043;-74
2022/03/06 06:32:21;;;;;;;0.90;0.90;;;-1.00;99.90;;;;;;5014522;28;20428;-74
2022/03/06 06:34:47;;;;;;;1.10;1.08;;;-1.00;99.90;;;;;;5015506;28;20069;-74
2022/03/06 06:37:13;;;;;;;0.40;0.40;;;-1.00;99.90;;;;;;5047515;28;20057;-74
2022/03/06 06:39:39;;;;;;;1.02;1.02;;;-1.00;99.90;;;;;;5006091;28;20056;-74
2022/03/06 06:42:05;;;;;;;0.70;0.70;;;-1.00;99.90;;;;;;5032252;28;20407;-74
2022/03/06 06:44:32;;;;;;;1.58;1.48;;;-1.00;99.90;;;;;;5013507;28;20068;-74
2022/03/06 06:46:57;;;;;;;0.50;0.50;;;-1.00;99.90;;;;;;5026736;28;20053;-74
2022/03/06 06:49:23;;;;;;;0.95;0.95;;;-1.00;99.90;;;;;;4995804;28;20048;-74
2022/03/06 06:51:49;;;;;;;0.93;0.93;;;-1.00;99.90;;;;;;5031563;28;20090;-74
2022/03/06 06:54:15;;;;;;;0.40;0.40;;;-0.90;99.90;;;;;;5028962;28;20044;-74
2022/03/06 06:56:41;;;;;;;0.77;0.77;;;-0.90;99.90;;;;;;5032112;28;20553;-74
2022/03/06 06:59:07;;;;;;;4.47;2.67;;;-0.90;99.90;;;;;;5012721;28;20406;-74
2022/03/06 07:01:33;;;;;;;0.70;0.70;;;-0.80;99.90;;;;;;5031605;28;20056;-74
2022/03/06 07:03:58;;;;;;;2.85;1.33;;;-0.70;99.90;;;;;;5028316;28;20492;-74
2022/03/06 07:06:24;;;;;;;0.50;0.50;;;-0.60;99.90;;;;;;5031535;28;20553;-74
2022/03/06 07:08:50;;;;;;;1.95;1.70;;;-0.50;99.90;;;;;;5025332;28;20160;-74
2022/03/06 07:11:15;;;;;;;0.75;0.75;;;-0.50;99.90;;;;;;5016695;28;20040;-74
2022/03/06 07:13:41;;;;;;;0.40;0.40;;;-0.40;99.90;;;;;;5045481;28;20403;-74
2022/03/06 07:16:06;;;;;;;0.60;0.60;;;-0.30;99.90;;;;;;5031840;28;20056;-75
2022/03/06 07:18:32;;;;;;;0.82;0.82;;;-0.30;99.90;;;;;;5012475;28;20045;-74
2022/03/06 07:20:58;;;;;;;0.75;0.75;;;-0.20;99.90;;;;;;5030857;28;20049;-74
2022/03/06 07:23:23;;;;;;;1.05;1.05;;;-0.10;99.90;;;;;;5047611;28;20512;-74
2022/03/06 07:25:49;;;;;;;0.68;0.68;;;0.00;99.90;;;;;;5029534;28;20049;-75
2022/03/06 07:28:14;;;;;;;2.17;1.98;;;0.10;99.90;;;;;;5031102;28;20041;-75
2022/03/06 07:30:40;;;;;;;2.83;1.90;;;0.20;99.90;;;;;;5042146;28;20056;-75
2022/03/06 07:33:06;;;;;;;0.80;0.80;;;0.40;99.90;;;;;;4994860;28;20045;-75
2022/03/06 07:35:32;;;;;;;6.32;2.08;;;0.80;99.90;;;;;;5010116;28;20064;-74
2022/03/06 07:37:58;;;;;;;1.83;1.73;;;1.30;99.90;;;;;;5017265;28;20387;-75
2022/03/06 07:40:24;;;;;;;5.80;1.75;;;1.30;99.90;;;;;;5029580;28;20500;-75
2022/03/06 07:42:50;;;;;;;2.22;2.03;;;1.30;99.90;;;;;;5012484;28;20036;-75
2022/03/06 07:45:17;;;;;;;3.42;1.80;;;1.40;99.90;;;;;;5009282;28;20508;-75
2022/03/06 07:47:43;;;;;;;0.90;0.90;;;1.40;99.90;;;;;;5011327;28;20044;-75
2022/03/06 07:50:11;;;;;;;6.38;1.63;;;1.50;99.90;;;;;;5010057;28;20041;-74
2022/03/06 07:52:38;;;;;;;2.22;2.03;;;1.60;99.90;;;;;;5022811;28;20125;-75
2022/03/06 07:55:05;;;;;;;2.28;2.00;;;1.70;99.90;;;;;;5029505;28;20106;-74
2022/03/06 07:57:30;;;;;;;5.05;1.60;;;1.80;99.90;;;;;;5030429;28;20041;-75
2022/03/06 07:59:56;;;;;;;3.88;2.63;;;1.90;99.90;;;;;;5020841;28;20047;-75
2022/03/06 08:02:21;;;;;;;2.45;1.50;;;2.00;99.90;;;;;;5012643;28;20037;-75
2022/03/06 08:04:47;;;;;;;2.17;1.83;;;2.10;99.90;;;;;;4996090;28;20036;-75
2022/03/06 08:07:13;;;;;;;1.15;1.08;;;2.20;99.90;;;;;;5011526;28;20120;-75
2022/03/06 08:09:38;;;;;;;1.83;1.65;;;2.30;99.90;;;;;;5040466;28;20418;-75
2022/03/06 08:12:04;;;;;;;2.25;2.00;;;2.40;99.90;;;;;;5010506;28;20036;-75
2022/03/06 08:14:31;;;;;;;2.22;1.75;;;2.60;99.90;;;;;;5006887;28;20040;-75
2022/03/06 08:16:56;;;;;;;2.90;1.55;;;2.70;99.90;;;;;;5013064;28;20059;-75
2022/03/06 08:19:22;;;;;;;2.60;2.13;;;2.70;99.90;;;;;;5019122;28;20044;-76
2022/03/06 08:21:48;;;;;;;5.80;2.20;;;2.90;99.90;;;;;;5015655;28;20061;-75
2022/03/06 08:24:17;;;;;;;3.30;1.75;;;3.10;99.90;;;;;;5003911;28;20041;-75
2022/03/06 08:26:43;;;;;;;7.75;2.45;;;3.20;99.90;;;;;;5017504;28;20098;-77
2022/03/06 08:29:10;;;;;;;1.60;1.50;;;3.20;99.90;;;;;;5017633;28;20516;-75
2022/03/06 08:31:35;;;;;;;2.97;2.17;;;3.20;99.90;;;;;;5018102;28;20410;-75
2022/03/06 08:34:01;;;;;;;3.28;2.15;;;3.30;99.90;;;;;;5019656;28;20048;-74
2022/03/06 08:36:27;;;;;;;3.83;2.38;;;3.30;99.90;;;;;;5012340;28;20059;-75
2022/03/06 08:38:52;;;;;;;1.88;1.60;;;3.30;99.90;;;;;;5021110;28;20049;-75
2022/03/06 08:41:18;;;;;;;1.15;1.08;;;3.50;99.90;;;;;;5031296;28;20044;-75
2022/03/06 08:43:44;;;;;;;3.33;2.17;;;3.60;99.90;;;;;;5027754;28;20057;-75
2022/03/06 08:46:10;;;;;;;5.25;2.40;;;3.70;99.90;;;;;;5027015;28;20288;-75
2022/03/06 08:48:38;;;;;;;2.88;1.70;;;3.70;99.90;;;;;;5012868;28;20040;-75
2022/03/06 08:51:05;;;;;;;2.08;1.50;;;3.80;99.90;;;;;;5009520;28;20045;-75
2022/03/06 08:53:31;;;;;;;3.42;1.92;;;4.40;99.90;;;;;;5027158;28;20045;-75
2022/03/06 08:55:58;;;;;;;4.32;1.67;;;4.90;99.90;;;;;;5018377;28;20543;-75
2022/03/06 08:58:24;;;;;;;1.63;1.52;;;5.30;99.10;;;;;;5009615;28;20072;-75
2022/03/06 09:00:49;;;;;;;2.25;1.75;;;5.90;96.90;;;;;;5003135;28;20508;-75
2022/03/06 09:03:15;;;;;;;2.33;1.65;;;6.30;91.30;;;;;;5011722;28;20051;-75
2022/03/06 09:05:40;;;;;;;3.03;1.77;;;6.40;88.70;;;;;;5007965;28;20049;-75
2022/03/06 09:08:09;;;;;;;3.58;2.08;;;6.60;85.00;;;;;;5023988;28;20094;-75
2022/03/06 09:10:35;;;;;;;3.08;1.95;;;6.60;81.70;;;;;;5032699;28;20124;-75
2022/03/06 09:13:02;;;;;;;1.70;1.58;;;6.60;80.50;;;;;;5021286;28;20516;-75
2022/03/06 09:15:28;;;;;;;0.70;0.70;;;6.60;79.90;;;;;;5025942;28;20041;-75
2022/03/06 09:17:53;;;;;;;3.65;2.17;;;6.70;83.20;;;;;;4995078;28;20131;-75
2022/03/06 09:20:19;;;;;;;2.42;1.95;;;6.90;80.70;;;;;;5024416;28;20128;-75
2022/03/06 09:22:46;;;;;;;1.40;1.30;;;6.80;80.40;;;;;;5020162;28;20643;-75
2022/03/06 09:25:12;;;;;;;7.40;2.10;;;6.90;78.60;;;;;;5033830;28;20041;-75
2022/03/06 09:27:38;;;;;;;3.42;1.58;;;7.00;73.70;;;;;;5016148;28;20087;-75
2022/03/06 09:30:06;;;;;;;4.22;1.73;;;7.10;74.80;;;;;;5040651;28;20029;-75
2022/03/06 09:32:31;;;;;;;1.17;0.80;;;7.20;75.10;;;;;;5005578;28;20445;-75
2022/03/06 09:34:57;;;;;;;3.92;1.80;;;7.30;73.60;;;;;;5007225;28;20041;-75
2022/03/06 09:37:23;;;;;;;1.48;1.35;;;7.50;73.40;;;;;;4997291;28;20061;-75
2022/03/06 09:39:48;;;;;;;4.47;2.00;;;7.60;74.30;;;;;;5021090;28;20049;-75
2022/03/06 09:42:22;;;;;;;2.90;1.75;;;7.70;69.20;;;;;;5023851;28;20037;-75
2022/03/06 09:44:49;;;;;;;1.80;1.60;;;7.60;70.00;;;;;;5028723;28;20051;-75
2022/03/06 09:47:15;;;;;;;3.78;0.73;;;7.70;72.20;;;;;;5008465;28;20063;-75
2022/03/06 09:49:46;;;;;;;2.35;1.60;;;7.90;73.30;;;;;;5022200;28;20037;-75
2022/03/06 09:52:12;;;;;;;6.13;2.03;;;7.80;68.90;;;;;;5017883;28;20041;-75
2022/03/06 09:54:38;;;;;;;2.83;2.00;;;7.60;70.00;;;;;;5023252;28;20075;-75
2022/03/06 09:57:05;;;;;;;3.13;1.80;;;7.60;68.80;;;;;;5032822;28;20049;-75
2022/03/06 09:59:32;;;;;;;2.45;1.77;;;7.50;69.50;;;;;;5029313;28;20086;-75
2022/03/06 10:02:05;;;;;;;3.88;2.30;;;7.50;69.70;;;;;;5025195;28;20049;-75
2022/03/06 10:04:34;;;;;;;2.40;1.55;;;7.60;69.30;;;;;;5023607;28;20052;-75
2022/03/06 10:07:07;;;;;;;0.98;0.98;;;7.60;72.90;;;;;;5028779;28;20431;-75
2022/03/06 10:09:49;;;;;;;1.73;1.63;;;7.60;70.90;;;;;;5026335;28;20398;-75
2022/03/06 10:12:22;;;;;;;3.80;2.03;;;7.60;69.90;;;;;;5029838;28;20492;-75
2022/03/06 10:14:50;;;;;;;2.90;2.00;;;7.60;70.20;;;;;;5025602;28;20045;-75
2022/03/06 10:17:18;;;;;;;2.10;1.60;;;7.50;72.60;;;;;;5042520;28;20090;-75
2022/03/06 10:19:48;;;;;;;2.58;1.67;;;7.50;72.10;;;;;;5012104;28;20041;-75
2022/03/06 10:22:14;;;;;;;1.92;1.73;;;7.40;71.40;;;;;;5026918;28;20474;-75
2022/03/06 10:24:51;;;;;;;2.72;1.85;;;7.20;71.70;;;;;;5029808;28;20135;-76
2022/03/06 10:27:37;;;;;;;3.42;1.45;;;7.20;72.60;;;;;;5032003;28;20040;-76
2022/03/06 10:30:20;;;;;;;3.05;2.15;;;7.10;72.80;;;;;;5027315;28;20045;-76
2022/03/06 10:32:46;;;;;;;0.63;0.63;;;7.00;71.30;;;;;;5029427;28;20033;-76
2022/03/06 10:35:12;;;;;;;2.80;1.27;;;6.80;73.40;;;;;;5013808;28;20547;-76
2022/03/06 10:37:37;;;;;;;2.03;1.73;;;6.90;77.90;;;;;;5014692;28;20547;-74
2022/03/06 10:40:04;;;;;;;3.30;2.33;;;7.10;78.80;;;;;;5020774;28;20037;-73
2022/03/06 10:42:29;;;;;;;6.22;1.45;;;7.20;76.50;;;;;;4997595;28;20040;-73
2022/03/06 10:44:55;;;;;;;4.70;1.88;;;7.10;76.30;;;;;;5031117;28;20740;-73
2022/03/06 10:47:21;;;;;;;2.53;1.15;;;7.00;78.80;;;;;;5031247;28;20449;-73
2022/03/06 10:50:01;;;;;;;2.22;1.50;;;7.00;81.80;;;;;;5003972;28;20128;-73
2022/03/06 10:52:26;;;;;;;2.28;1.35;;;7.30;82.30;;;;;;5025903;28;20103;-73
2022/03/06 10:54:54;;;;;;;5.22;2.20;;;7.30;73.90;;;;;;5028967;28;20051;-73
2022/03/06 10:57:21;;;;;;;3.35;1.35;;;7.00;75.20;;;;;;5031540;28;20048;-73
2022/03/06 10:59:47;;;;;;;2.13;1.92;;;6.90;79.80;;;;;;5009913;28;20169;-75
2022/03/06 11:02:13;;;;;;;3.72;1.95;;;6.90;77.30;;;;;;5024094;28;20049;-76
2022/03/06 11:04:40;;;;;;;3.38;1.92;;;7.00;79.70;;;;;;5045888;28;20037;-73
2022/03/06 11:07:06;;;;;;;3.25;1.70;;;7.10;77.00;;;;;;5041479;28;20497;-74
2022/03/06 11:09:32;;;;;;;0.80;0.80;;;7.10;78.00;;;;;;5020638;28;20049;-74
2022/03/06 11:11:58;;;;;;;2.85;1.70;;;7.10;77.80;;;;;;5028401;28;20098;-74
2022/03/06 11:14:25;;;;;;;2.75;1.50;;;7.20;81.30;;;;;;5001576;28;20045;-74
2022/03/06 11:16:51;;;;;;;2.45;1.45;;;7.20;79.80;;;;;;5012330;28;20041;-74
2022/03/06 11:19:17;;;;;;;3.50;2.10;;;7.10;78.10;;;;;;5023779;28;20482;-73
2022/03/06 11:21:48;;;;;;;5.85;2.05;;;7.10;78.90;;;;;;5018872;28;20485;-76
2022/03/06 11:24:19;;;;;;;2.15;1.55;;;7.20;78.80;;;;;;5028701;28;20167;-75
2022/03/06 11:27:22;;;;;;;5.63;1.77;;;7.10;75.70;;;;;;5033443;28;20616;-74
2022/03/06 11:30:03;;;;;;;4.67;2.83;;;7.00;80.50;;;;;;5021501;28;20111;-73
2022/03/06 11:32:31;;;;;;;4.72;2.97;;;7.30;82.60;;;;;;5004786;28;20040;-73
2022/03/06 11:35:08;;;;;;;2.13;1.30;;;7.30;78.70;;;;;;5009031;28;20041;-73
2022/03/06 11:37:50;;;;;;;5.97;1.75;;;7.30;84.20;;;;;;5027719;28;20069;-73
2022/03/06 11:40:49;;;;;;;2.08;1.65;;;7.40;80.80;;;;;;4996680;28;20502;-73
2022/03/06 11:43:33;;;;;;;2.40;1.55;;;7.40;80.90;;;;;;5002050;28;20065;-73
2022/03/06 11:45:58;;;;;;;6.60;2.25;;;7.50;85.50;;;;;;5011877;28;20044;-74
2022/03/06 11:48:48;;;;;;;4.95;2.08;;;7.70;82.20;;;;;;4994708;28;20136;-74
2022/03/06 11:51:19;;;;;;;4.40;2.22;;;7.70;79.80;;;;;;5011443;28;20045;-73
2022/03/06 11:54:05;;;;;;;3.25;2.38;;;7.60;77.90;;;;;;5026993;28;20048;-74
2022/03/06 11:56:39;;;;;;;1.38;1.27;;;7.60;84.70;;;;;;5026957;28;20041;-74
2022/03/06 11:59:06;;;;;;;2.03;1.65;;;7.80;87.40;;;;;;5006868;28;20042;-73
2022/03/06 12:01:37;;;;;;;4.70;1.83;;;7.90;87.00;;;;;;5030658;28;20052;-74
2022/03/06 12:04:08;;;;;;;1.73;1.08;;;8.00;85.80;;;;;;5030002;28;20136;-74
2022/03/06 12:06:43;;;;;;;3.75;1.95;;;7.90;82.90;;;;;;5014636;28;20123;-74
2022/03/06 12:09:14;;;;;;;0.52;0.52;;;7.90;80.50;;;;;;5018774;28;20501;-74
2022/03/06 12:11:40;;;;;;;4.50;1.73;;;7.70;82.60;;;;;;5020894;28;20825;-74
2022/03/06 12:14:22;;;;;;;3.47;1.40;;;7.60;80.00;;;;;;5029458;28;20084;-74
2022/03/06 12:17:03;;;;;;;0.80;0.80;;;7.50;83.20;;;;;;5027129;28;20045;-73
2022/03/06 12:19:40;;;;;;;0.73;0.73;;;7.40;83.00;;;;;;5007121;28;20049;-73
2022/03/06 12:22:12;;;;;;;3.60;1.40;;;7.30;84.20;;;;;;5027349;28;20048;-73
2022/03/06 12:24:39;;;;;;;3.22;1.80;;;7.20;87.20;;;;;;5022152;28;20500;-73
2022/03/06 12:27:13;;;;;;;1.17;1.08;;;7.30;89.20;;;;;;5026745;28;20044;-73
2022/03/06 12:29:48;;;;;;;1.27;0.90;;;7.40;90.40;;;;;;5009130;28;20040;-74
2022/03/06 12:32:26;;;;;;;3.58;2.47;;;7.60;90.60;;;;;;5029176;28;20037;-73
2022/03/06 12:35:09;;;;;;;1.00;1.00;;;7.70;90.20;;;;;;5015559;28;21392;-73
2022/03/06 12:37:49;;;;;;;3.42;1.33;;;7.70;90.30;;;;;;5018713;28;20060;-73
2022/03/06 12:40:17;;;;;;;1.08;0.85;;;7.80;91.30;;;;;;5012512;28;20041;-72
2022/03/06 12:42:45;;;;;;;2.75;2.55;;;7.80;90.20;;;;;;5020008;28;20459;-72
2022/03/06 12:45:14;;;;;;;3.42;2.28;;;7.90;89.10;;;;;;5033780;28;20100;-72
2022/03/06 12:47:42;;;;;;;0.63;0.63;;;7.90;90.20;;;;;;5011695;28;20040;-72
2022/03/06 12:50:19;;;;;;;1.33;1.23;;;7.80;90.50;;;;;;5028649;28;20084;-72
2022/03/06 12:52:47;;;;;;;1.83;1.65;;;7.80;91.60;;;;;;5025104;28;20132;-72
2022/03/06 12:55:17;;;;;;;1.77;1.33;;;7.80;91.10;;;;;;5020664;28;20078;-72
2022/03/06 12:57:45;;;;;;;3.95;1.90;;;7.80;91.60;;;;;;5028603;28;20077;-72
2022/03/06 13:00:22;;;;;;;1.58;1.23;;;7.90;89.50;;;;;;5026874;28;20041;-72